Data for 05/08/2014

Time Sea-Level Adjusted Pressure Absolute Pressure Temperature Relative Humidity Dew Point   
(mb) (inHg) (mb) (inHg) (C) (F) (%) (C) (F)
00:05 1015 29.97 844 24.92 -0.8 30.5 79 -4.1 24.6
00:10 1015 29.97 844 24.92 -1 30.2 80 -4.1 24.6
00:15 1015 29.97 844 24.92 -1.1 30 79 -4.3 24.3
00:20 1015 29.97 844 24.92 -1 30.1 79 -4.2 24.5
00:25 1015 29.97 844 24.92 -1 30.1 78 -4.4 24.1
00:30 1015 29.97 844 24.92 -1 30.2 78 -4.4 24.1
00:35 1015 29.97 844 24.92 -1 30.2 78 -4.4 24.1
00:40 1015 29.97 844 24.92 -1 30.2 78 -4.4 24.1
00:45 1015 29.97 844 24.92 -1.1 30 79 -4.3 24.2
00:50 1015 29.97 844 24.92 -1.2 29.8 79 -4.4 24
00:55 1015 29.97 844 24.92 -1.2 29.8 79 -4.4 24.1
01:00 1015 29.97 844 24.92 -1.3 29.7 79 -4.4 24
01:05 1015 29.97 844 24.92 -1.4 29.6 80 -4.4 24.1
01:10 1015 29.97 844 24.92 -1.4 29.5 79 -4.5 23.9
01:15 1015 29.97 844 24.92 -1.4 29.4 80 -4.5 23.9
01:20 1015 29.97 844 24.92 -1.4 29.4 79 -4.5 23.9
01:25 1015 29.97 844 24.92 -1.4 29.5 80 -4.4 24
01:30 1015 29.97 844 24.92 -1.4 29.5 79 -4.5 23.9
01:35 1015 29.97 844 24.92 -1.4 29.5 79 -4.5 23.9
01:40 1015 29.97 844 24.92 -1.4 29.6 79 -4.5 23.8
01:45 1015 29.97 844 24.92 -1.4 29.5 79 -4.5 23.9
01:50 1015 29.97 844 24.92 -1.5 29.3 80 -4.6 23.8
01:55 1015 29.97 844 24.92 -1.5 29.3 80 -4.6 23.8
02:00 1015 29.97 844 24.92 -1.5 29.4 79 -4.7 23.6
02:05 1015 29.97 844 24.92 -1.4 29.5 79 -4.6 23.7
02:10 1015 29.97 844 24.92 -1.4 29.5 79 -4.7 23.6
02:15 1015 29.97 844 24.92 -1.4 29.5 78 -4.7 23.5
02:20 1015 29.97 844 24.92 -1.4 29.5 78 -4.8 23.4
02:25 1015 29.97 844 24.92 -1.3 29.7 77 -4.8 23.4
02:30 1015 29.97 844 24.92 -1.3 29.7 77 -4.7 23.5
02:35 1015 29.97 844 24.92 -1.2 29.8 77 -4.8 23.3
02:40 1015 29.97 844 24.92 -1.2 29.9 77 -4.8 23.4
02:45 1015 29.97 844 24.92 -1.1 30 76 -4.8 23.3
02:50 1015 29.97 844 24.92 -1 30.2 76 -4.7 23.6
02:55 1015 29.97 844 24.92 -1.1 30.1 76 -4.7 23.5
03:00 1015 29.97 844 24.92 -1 30.3 76 -4.7 23.6
03:05 1015 29.97 844 24.92 -0.9 30.3 76 -4.7 23.6
03:10 1015 29.97 844 24.92 -0.8 30.5 76 -4.6 23.7
03:15 1015 29.97 844 24.92 -0.9 30.5 76 -4.6 23.8
03:20 1015 29.97 844 24.92 -0.8 30.6 75 -4.7 23.6
03:25 1015 29.97 844 24.92 -0.7 30.8 75 -4.6 23.7
03:30 1015 29.97 844 24.92 -0.6 30.9 74 -4.6 23.7
03:35 1015 29.97 844 24.92 -0.7 30.8 75 -4.6 23.7
03:40 1015 29.97 844 24.92 -0.7 30.8 74 -4.7 23.5
03:45 1015 29.97 844 24.92 -0.7 30.7 74 -4.8 23.3
03:50 1015 29.97 844 24.92 -0.7 30.8 74 -4.8 23.4
03:55 1015 29.97 845 24.95 -0.7 30.7 74 -4.8 23.3
04:00 1015 29.97 845 24.95 -0.8 30.6 74 -4.8 23.4
04:05 1015 29.97 845 24.95 -0.9 30.4 75 -4.8 23.3
04:10 1015 29.97 845 24.95 -0.9 30.3 75 -4.9 23.2
04:15 1015 29.97 845 24.95 -0.9 30.4 74 -4.9 23.2
04:20 1015 29.97 845 24.95 -1 30.3 75 -4.8 23.4
04:25 1015 29.97 845 24.95 -1 30.2 75 -4.8 23.4
04:30 1015 29.97 844 24.92 -1 30.2 76 -4.8 23.4
04:35 1015 29.97 844 24.92 -1 30.2 75 -4.8 23.3
04:40 1015 29.97 844 24.92 -1 30.3 75 -4.8 23.4
04:45 1015 29.97 844 24.92 -0.9 30.3 75 -4.9 23.3
04:50 1015 29.97 844 24.92 -0.8 30.5 75 -4.7 23.6
04:55 1015 29.97 844 24.92 -0.9 30.4 76 -4.6 23.8
05:00 1015 29.97 845 24.95 -0.9 30.3 77 -4.5 23.9
05:05 1015 29.97 844 24.92 -1 30.1 77 -4.5 23.9
05:10 1015 29.97 844 24.92 -1.2 29.9 78 -4.6 23.8
05:15 1015 29.97 844 24.92 -1.2 29.9 78 -4.6 23.7
05:20 1015 29.97 844 24.92 -1.2 29.9 78 -4.6 23.8
05:25 1015 29.97 844 24.92 -1.2 29.9 77 -4.7 23.6
05:30 1015 29.97 844 24.92 -0.9 30.4 76 -4.6 23.7
05:35 1015 29.97 844 24.92 -0.7 30.8 75 -4.6 23.8
05:40 1015 29.97 844 24.92 -0.5 31.2 74 -4.5 23.9
05:45 1015 29.97 844 24.92 -0.3 31.4 74 -4.4 24.1
05:50 1015 29.97 845 24.95 -0.4 31.3 74 -4.5 24
05:55 1015 29.97 845 24.95 -0.2 31.6 73 -4.5 24
06:00 1015 29.97 845 24.95 -0.1 31.8 72 -4.5 23.9
06:05 1015 29.97 845 24.95 0.1 32.1 72 -4.4 24
06:10 1015 29.97 845 24.95 0.2 32.4 71 -4.3 24.2
06:15 1015 29.97 845 24.95 0.5 32.9 71 -4.2 24.4
06:20 1015 29.97 845 24.95 0.5 32.9 71 -4.2 24.4
06:25 1015 29.97 845 24.95 0.8 33.4 70 -4.1 24.6
06:30 1015 29.97 845 24.95 0.9 33.7 70 -4 24.8
06:35 1015 29.97 845 24.95 1.3 34.3 68 -4 24.8
06:40 1015 29.97 845 24.95 1.3 34.4 69 -3.8 25.2
06:45 1015 29.97 845 24.95 1.6 34.8 67 -3.9 25
06:50 1015 29.97 845 24.95 1.8 35.3 68 -3.5 25.7
06:55 1015 29.97 845 24.95 1.8 35.3 66 -3.8 25.2
07:00 1015 29.97 845 24.95 1.9 35.5 66 -3.8 25.2
07:05 1015 29.97 845 24.95 2.6 36.8 63 -3.8 25.2
07:10 1015 29.97 845 24.95 3 37.3 61 -3.7 25.3
07:15 1015 29.97 845 24.95 3.3 37.9 60 -3.8 25.1
07:20 1015 29.97 845 24.95 3.7 38.6 57 -4 24.8
07:25 1015 29.97 845 24.95 3.5 38.3 60 -3.4 25.8
07:30 1015 29.97 845 24.95 3.7 38.7 59 -3.6 25.6
07:35 1015 29.97 845 24.95 3.6 38.6 58 -3.8 25.1
07:40 1015 29.97 845 24.95 3.9 39.1 56 -4.1 24.6
07:45 1016 30 845 24.95 4.6 40.2 56 -3.4 25.9
07:50 1016 30 845 24.95 4.9 40.8 55 -3.3 26.1
07:55 1016 30 845 24.95 5.1 41.2 56 -2.9 26.8
08:00 1016 30 845 24.95 5.1 41.2 56 -3 26.5
08:05 1016 30 845 24.95 4.1 39.3 59 -3.2 26.2
08:10 1016 30 845 24.95 4.2 39.6 58 -3.2 26.2
08:15 1016 30 845 24.95 4.6 40.2 56 -3.3 26
08:20 1016 30 845 24.95 5.3 41.6 54 -3.3 26.1
08:25 1016 30 845 24.95 5.3 41.5 53 -3.4 25.9
08:30 1016 30 845 24.95 5.9 42.6 50 -3.8 25.1
08:35 1016 30 845 24.95 6.3 43.4 52 -2.9 26.8
08:40 1016 30 845 24.95 6.2 43.1 51 -3.2 26.2
08:45 1016 30 845 24.95 5.8 42.4 54 -2.8 27
08:50 1016 30 845 24.95 6.1 43 51 -3.3 26.1
08:55 1016 30 845 24.95 6.8 44.3 49 -3.1 26.5
09:00 1015 29.97 845 24.95 6.3 43.3 50 -3.3 26
09:05 1015 29.97 845 24.95 6.8 44.2 50 -2.9 26.8
09:10 1015 29.97 845 24.95 6.1 42.9 51 -3.2 26.2
09:15 1015 29.97 845 24.95 6.7 44.1 47 -3.8 25.1
09:20 1015 29.97 845 24.95 7.2 44.9 46 -3.8 25.2
09:25 1015 29.97 845 24.95 7.3 45.1 46 -3.5 25.6
09:30 1015 29.97 845 24.95 7.6 45.7 44 -3.8 25.2
09:35 1015 29.97 844 24.92 7.7 45.9 44 -3.6 25.5
09:40 1015 29.97 844 24.92 7.8 46 42 -4.3 24.3
09:45 1015 29.97 844 24.92 8.1 46.6 42 -4.1 24.7
09:50 1015 29.97 844 24.92 8.2 46.7 45 -2.9 26.8
09:55 1015 29.97 844 24.92 6.9 44.5 47 -3.5 25.6
10:00 1015 29.97 844 24.92 6.8 44.2 46 -4 24.8
10:05 1015 29.97 844 24.92 7.9 46.2 43 -3.9 24.9
10:10 1015 29.97 844 24.92 8.9 48 39 -4.1 24.6
10:15 1015 29.97 844 24.92 9 48.3 41 -3.4 25.8
10:20 1015 29.97 844 24.92 8 46.4 40 -4.9 23.3
10:25 1015 29.97 844 24.92 8.8 47.9 41 -3.6 25.5
10:30 1015 29.97 844 24.92 8.2 46.8 43 -3.7 25.3
10:35 1015 29.97 844 24.92 8.2 46.8 39 -4.8 23.3
10:40 1015 29.97 844 24.92 9.1 48.4 37 -4.7 23.5
10:45 1015 29.97 844 24.92 9.6 49.3 33 -5.7 21.7
10:50 1015 29.97 844 24.92 9.1 48.5 40 -3.9 25
10:55 1015 29.97 844 24.92 9.2 48.5 37 -4.8 23.4
11:00 1015 29.97 844 24.92 10 50 34 -4.9 23.1
11:05 1015 29.97 844 24.92 10.6 51.1 34 -4.6 23.7
11:10 1015 29.97 844 24.92 10.8 51.5 33 -5 23
11:15 1015 29.97 844 24.92 11 51.8 31 -5.6 22
11:20 1015 29.97 844 24.92 10.6 51.1 31 -5.8 21.5
11:25 1015 29.97 844 24.92 10 50 32 -5.9 21.3
11:30 1015 29.97 844 24.92 10.2 50.3 30 -6.6 20.2
11:35 1015 29.97 844 24.92 11.5 52.6 28 -6.5 20.4
11:40 1015 29.97 844 24.92 11.7 53.1 26 -7.2 19
11:45 1015 29.97 844 24.92 11.8 53.2 28 -6.1 21
11:50 1014 29.94 844 24.92 11.3 52.3 30 -5.7 21.8
11:55 1014 29.94 844 24.92 11.2 52.1 28 -6.6 20.2
12:00 1014 29.94 844 24.92 11.7 53 28 -6.4 20.5
12:05 1014 29.94 844 24.92 11.7 53.1 26 -7 19.4
12:10 1014 29.94 843 24.89 11.4 52.5 28 -6.3 20.7
12:15 1014 29.94 843 24.89 10.8 51.5 26 -7.9 17.8
12:20 1014 29.94 843 24.89 11.3 52.4 27 -6.8 19.8
12:25 1014 29.94 843 24.89 11.4 52.6 28 -6.3 20.6
12:30 1014 29.94 843 24.89 11.9 53.4 27 -6.4 20.4
12:35 1014 29.94 843 24.89 11.9 53.5 27 -6.4 20.6
12:40 1014 29.94 843 24.89 12.1 53.8 27 -6.5 20.3
12:45 1014 29.94 843 24.89 12.6 54.7 27 -5.9 21.3
12:50 1014 29.94 843 24.89 12.8 55.1 27 -5.8 21.5
12:55 1014 29.94 843 24.89 13.3 56 25 -6.2 20.8
13:00 1014 29.94 843 24.89 11.4 52.5 28 -6.2 20.8
13:05 1014 29.94 843 24.89 11.8 53.3 26 -6.9 19.6
13:10 1014 29.94 843 24.89 12.3 54.1 27 -6.4 20.5
13:15 1014 29.94 843 24.89 12.2 54 27 -6 21.1
13:20 1014 29.94 843 24.89 12.8 55 25 -6.7 19.9
13:25 1014 29.94 843 24.89 12.9 55.1 25 -6.7 20
13:30 1013 29.91 843 24.89 12.9 55.1 25 -6.5 20.3
13:35 1013 29.91 843 24.89 12.4 54.3 27 -6 21.2
13:40 1013 29.91 842 24.86 11.5 52.8 27 -7 19.4
13:45 1013 29.91 842 24.86 12.7 54.9 25 -6.6 20.2
13:50 1013 29.91 842 24.86 12.9 55.3 25 -6.4 20.5
13:55 1013 29.91 842 24.86 13.5 56.3 25 -6.2 20.9
14:00 1013 29.91 842 24.86 12.7 54.8 27 -6 21.2
14:05 1013 29.91 842 24.86 11.9 53.3 26 -7.1 19.3
14:10 1013 29.91 842 24.86 12 53.6 26 -6.9 19.5
14:15 1013 29.91 842 24.86 12.5 54.5 26 -6.3 20.6
14:20 1013 29.91 842 24.86 13.1 55.6 25 -6.4 20.4
14:25 1013 29.91 842 24.86 13.7 56.7 25 -6.1 21
14:30 1013 29.91 842 24.86 13.7 56.7 24 -6.2 20.9
14:35 1012 29.88 842 24.86 14.2 57.5 23 -6.3 20.6
14:40 1012 29.88 842 24.86 14 57.2 24 -6.4 20.6
14:45 1012 29.88 842 24.86 13.7 56.6 25 -6.2 20.9
14:50 1012 29.88 841 24.83 13 55.4 27 -5.4 22.3
14:55 1012 29.88 841 24.83 13.4 56.1 25 -6.2 20.8
15:00 1012 29.88 841 24.83 14.2 57.5 24 -6 21.1
15:05 1012 29.88 841 24.83 14 57.2 25 -5.9 21.4
15:10 1012 29.88 841 24.83 13.7 56.7 24 -6.2 20.9
15:15 1012 29.88 841 24.83 14 57.2 24 -6.1 21.1
15:20 1012 29.88 841 24.83 14.5 58.1 23 -6 21.1
15:25 1012 29.88 841 24.83 14.5 58 23 -6.1 20.9
15:30 1012 29.88 841 24.83 14 57.3 25 -5.8 21.5
15:35 1012 29.88 841 24.83 14.7 58.4 24 -5.8 21.5
15:40 1012 29.88 841 24.83 14.5 58 24 -5.9 21.4
15:45 1012 29.88 841 24.83 14.8 58.7 23 -6.3 20.7
15:50 1012 29.88 841 24.83 15.4 59.7 23 -5.8 21.6
15:55 1012 29.88 841 24.83 14.9 58.9 25 -4.9 23.2
16:00 1012 29.88 841 24.83 13.5 56.3 25 -5.9 21.4
16:05 1012 29.88 841 24.83 14 57.1 25 -5.7 21.8
16:10 1012 29.88 841 24.83 14.3 57.7 26 -5.1 22.8
16:15 1011 29.85 841 24.83 13.2 55.8 27 -5.2 22.6
16:20 1011 29.85 841 24.83 12.7 54.8 27 -6 21.2
16:25 1011 29.85 841 24.83 12.8 55 27 -5.6 22
16:30 1011 29.85 840 24.81 12.7 54.8 27 -5.7 21.7
16:35 1011 29.85 840 24.81 12.8 55.1 27 -5.7 21.7
16:40 1011 29.85 840 24.81 13.7 56.7 24 -6.5 20.4
16:45 1011 29.85 840 24.81 14.3 57.7 25 -5.6 21.8
16:50 1011 29.85 840 24.81 13.9 57.1 25 -5.7 21.7
16:55 1011 29.85 840 24.81 13.8 56.9 26 -5.5 22.2
17:00 1011 29.85 840 24.81 13.7 56.6 27 -4.8 23.3
17:05 1011 29.85 840 24.81 13.5 56.4 26 -5.3 22.4
17:10 1011 29.85 840 24.81 13.8 56.9 25 -5.6 22
17:15 1011 29.85 840 24.81 13.1 55.6 27 -5.5 22.2
17:20 1011 29.85 840 24.81 13.5 56.3 27 -5.3 22.4
17:25 1011 29.85 840 24.81 13.1 55.5 27 -5.2 22.6
17:30 1011 29.85 840 24.81 12.8 55.1 27 -5.5 22.2
17:35 1011 29.85 840 24.81 12.6 54.6 28 -5.5 22.1
17:40 1011 29.85 840 24.81 12.6 54.7 28 -5.6 21.9
17:45 1011 29.85 840 24.81 13 55.5 27 -5.5 22.1
17:50 1011 29.85 840 24.81 12.8 55.1 28 -5.2 22.6
17:55 1011 29.85 840 24.81 12.8 55 27 -5.5 22
18:00 1011 29.85 840 24.81 12.9 55.2 27 -5.7 21.7
18:05 1011 29.85 840 24.81 12.9 55.2 27 -5.8 21.6
18:10 1011 29.85 840 24.81 12.8 55 27 -5.9 21.4
18:15 1011 29.85 840 24.81 12.8 55.1 27 -5.8 21.6
18:20 1011 29.85 840 24.81 13 55.3 27 -5.5 22.2
18:25 1011 29.85 840 24.81 13.1 55.5 27 -5.5 22
18:30 1011 29.85 840 24.81 13 55.4 27 -5.7 21.8
18:35 1011 29.85 840 24.81 12.7 54.9 28 -5.2 22.7
18:40 1011 29.85 840 24.81 12.5 54.5 28 -5.6 22
18:45 1011 29.85 840 24.81 12.3 54.1 28 -5.5 22.1
18:50 1011 29.85 840 24.81 12.1 53.9 28 -5.6 22
18:55 1011 29.85 840 24.81 12 53.7 29 -5.5 22.1
19:00 1011 29.85 840 24.81 12 53.5 30 -5.2 22.6
19:05 1011 29.85 840 24.81 11.9 53.3 31 -4.8 23.4
19:10 1010 29.83 840 24.81 11.7 53 31 -4.7 23.6
19:15 1010 29.83 840 24.81 11.5 52.8 31 -4.8 23.3
19:20 1010 29.83 840 24.81 11.4 52.6 32 -4.5 23.9
19:25 1010 29.83 840 24.81 11.2 52.2 32 -4.6 23.7
19:30 1010 29.83 839 24.78 11.1 51.9 33 -4.4 24
19:35 1010 29.83 839 24.78 10.9 51.5 35 -4.1 24.7
19:40 1010 29.83 839 24.78 10.6 51.1 36 -3.8 25.1
19:45 1010 29.83 839 24.78 10.4 50.7 37 -3.8 25.2
19:50 1010 29.83 839 24.78 10.3 50.6 38 -3.2 26.2
19:55 1010 29.83 839 24.78 9.9 49.9 41 -2.6 27.3
20:00 1010 29.83 839 24.78 9.5 49.2 43 -2.3 27.8
20:05 1010 29.83 839 24.78 9.1 48.4 45 -2.1 28.3
20:10 1010 29.83 839 24.78 8.9 47.9 46 -2 28.5
20:15 1010 29.83 839 24.78 8.7 47.6 47 -2.1 28.3
20:20 1010 29.83 839 24.78 8.6 47.5 47 -1.9 28.5
20:25 1010 29.83 839 24.78 8.5 47.2 48 -1.9 28.6
20:30 1010 29.83 839 24.78 8.3 46.9 47 -2.4 27.7
20:35 1010 29.83 839 24.78 8.4 47 46 -2.5 27.6
20:40 1010 29.83 839 24.78 8.4 47.1 45 -2.8 27
20:45 1010 29.83 839 24.78 8.4 47.2 44 -3 26.6
20:50 1010 29.83 839 24.78 8.5 47.3 45 -2.8 27
20:55 1010 29.83 839 24.78 8.4 47.1 45 -3 26.7
21:00 1010 29.83 839 24.78 8.4 47 45 -2.9 26.7
21:05 1010 29.83 839 24.78 8.4 47.2 45 -2.7 27.1
21:10 1010 29.83 839 24.78 8.1 46.6 47 -2.5 27.5
21:15 1010 29.83 839 24.78 7.8 46.1 47 -2.8 27
21:20 1010 29.83 839 24.78 7.9 46.2 47 -2.8 27
21:25 1010 29.83 839 24.78 7.9 46.2 47 -2.8 27
21:30 1010 29.83 839 24.78 7.8 46.1 47 -2.7 27.2
21:35 1010 29.83 839 24.78 7.7 45.8 47 -2.8 27
21:40 1010 29.83 839 24.78 7.9 46.2 47 -2.6 27.3
21:45 1010 29.83 839 24.78 7.8 46.1 46 -3 26.5
21:50 1010 29.83 839 24.78 7.8 46 47 -2.9 26.8
21:55 1010 29.83 839 24.78 7.7 45.8 47 -2.9 26.7
22:00 1010 29.83 839 24.78 7.7 45.9 45 -3.4 25.9
22:05 1010 29.83 839 24.78 8.1 46.5 46 -2.9 26.8
22:10 1010 29.83 839 24.78 7.9 46.3 46 -3 26.5
22:15 1010 29.83 839 24.78 8 46.5 45 -3.1 26.5
22:20 1010 29.83 839 24.78 7.8 46 45 -3.3 26.1
22:25 1010 29.83 839 24.78 7.8 46.1 45 -3.3 26
22:30 1010 29.83 839 24.78 7.7 45.9 46 -3.2 26.2
22:35 1010 29.83 839 24.78 7.7 45.9 46 -3.1 26.3
22:40 1010 29.83 839 24.78 7.7 45.9 43 -4 24.9
22:45 1010 29.83 839 24.78 7.9 46.3 45 -3.3 26
22:50 1010 29.83 839 24.78 7.9 46.2 44 -3.5 25.7
22:55 1010 29.83 839 24.78 7.8 46 44 -3.6 25.5
23:00 1010 29.83 839 24.78 7.6 45.7 48 -2.8 27
23:05 1010 29.83 839 24.78 7.1 44.8 50 -2.6 27.3
23:10 1010 29.83 839 24.78 7.1 44.7 48 -3.3 26
23:15 1010 29.83 839 24.78 7.3 45.1 46 -3.6 25.6
23:20 1010 29.83 839 24.78 7.3 45.1 49 -2.7 27.2
23:25 1010 29.83 839 24.78 6.4 43.6 52 -2.7 27.1
23:30 1010 29.83 839 24.78 6.4 43.5 51 -2.9 26.8
23:35 1010 29.83 839 24.78 6.4 43.5 49 -3.6 25.4
23:40 1009 29.8 839 24.78 6.6 44 51 -2.9 26.8
23:45 1009 29.8 839 24.78 6.5 43.8 50 -3 26.6
23:50 1009 29.8 839 24.78 6.4 43.6 51 -2.9 26.8
23:55 1009 29.8 839 24.78 6.1 43.1 53 -2.7 27.1
24:00 1009 29.8 838 24.75 6 42.8 52 -3.1 26.5